sensor_id;sensor_type;location;lat;lon;timestamp;pressure;altitude;pressure_sealevel;temperature;humidity
12213;BME280;6169;44.158;22.788;2023-04-28T00:04:36;101464.56;;;10.42;35.70
12213;BME280;6169;44.158;22.788;2023-04-28T00:09:39;101462.78;;;10.61;34.65
12213;BME280;6169;44.158;22.788;2023-04-28T00:14:42;101469.34;;;10.46;35.26
12213;BME280;6169;44.158;22.788;2023-04-28T00:19:44;101453.91;;;10.40;34.36
12213;BME280;6169;44.158;22.788;2023-04-28T00:24:47;101464.91;;;10.14;34.85
12213;BME280;6169;44.158;22.788;2023-04-28T00:29:49;101461.75;;;10.17;34.91
12213;BME280;6169;44.158;22.788;2023-04-28T00:34:52;101456.66;;;9.82;35.06
12213;BME280;6169;44.158;22.788;2023-04-28T00:39:56;101464.81;;;9.82;35.45
12213;BME280;6169;44.158;22.788;2023-04-28T00:44:59;101458.91;;;9.98;34.83
12213;BME280;6169;44.158;22.788;2023-04-28T00:50:06;101473.63;;;10.29;34.91
12213;BME280;6169;44.158;22.788;2023-04-28T00:55:14;101483.00;;;10.33;37.07
12213;BME280;6169;44.158;22.788;2023-04-28T01:00:17;101484.13;;;10.19;35.01
12213;BME280;6169;44.158;22.788;2023-04-28T01:05:19;101487.66;;;10.19;35.98
12213;BME280;6169;44.158;22.788;2023-04-28T01:10:23;101491.84;;;10.22;35.50
12213;BME280;6169;44.158;22.788;2023-04-28T01:15:25;101497.50;;;10.20;35.20
12213;BME280;6169;44.158;22.788;2023-04-28T01:20:27;101505.88;;;10.06;34.92
12213;BME280;6169;44.158;22.788;2023-04-28T01:25:31;101508.19;;;10.54;35.20
12213;BME280;6169;44.158;22.788;2023-04-28T01:30:33;101520.06;;;10.21;36.39
12213;BME280;6169;44.158;22.788;2023-04-28T01:35:36;101520.34;;;9.86;36.04
12213;BME280;6169;44.158;22.788;2023-04-28T01:40:40;101522.66;;;9.96;35.20
12213;BME280;6169;44.158;22.788;2023-04-28T01:45:42;101528.16;;;10.41;35.50
12213;BME280;6169;44.158;22.788;2023-04-28T01:50:45;101530.13;;;10.20;36.85
12213;BME280;6169;44.158;22.788;2023-04-28T01:55:48;101538.34;;;9.87;35.64
12213;BME280;6169;44.158;22.788;2023-04-28T02:00:51;101534.84;;;10.38;36.65
12213;BME280;6169;44.158;22.788;2023-04-28T02:05:53;101538.47;;;10.71;37.11
12213;BME280;6169;44.158;22.788;2023-04-28T02:10:57;101548.41;;;10.45;36.57
12213;BME280;6169;44.158;22.788;2023-04-28T02:16:01;101563.84;;;10.58;40.47
12213;BME280;6169;44.158;22.788;2023-04-28T02:21:09;101568.28;;;10.97;38.13
12213;BME280;6169;44.158;22.788;2023-04-28T02:26:13;101568.38;;;10.77;36.88
12213;BME280;6169;44.158;22.788;2023-04-28T02:31:16;101573.28;;;10.94;40.00
12213;BME280;6169;44.158;22.788;2023-04-28T02:36:18;101577.13;;;11.18;39.74
12213;BME280;6169;44.158;22.788;2023-04-28T02:41:22;101578.09;;;11.30;39.30
12213;BME280;6169;44.158;22.788;2023-04-28T02:46:24;101572.75;;;11.17;38.94
12213;BME280;6169;44.158;22.788;2023-04-28T02:51:26;101588.81;;;11.25;39.29
12213;BME280;6169;44.158;22.788;2023-04-28T02:56:30;101587.41;;;11.47;37.30
12213;BME280;6169;44.158;22.788;2023-04-28T03:01:32;101586.19;;;11.11;39.29
12213;BME280;6169;44.158;22.788;2023-04-28T03:06:34;101602.19;;;11.26;40.05
12213;BME280;6169;44.158;22.788;2023-04-28T03:11:38;101606.31;;;11.35;39.28
12213;BME280;6169;44.158;22.788;2023-04-28T03:16:40;101602.25;;;11.20;38.36
12213;BME280;6169;44.158;22.788;2023-04-28T03:21:42;101606.47;;;10.77;38.10
12213;BME280;6169;44.158;22.788;2023-04-28T03:26:47;101614.72;;;10.96;40.19
12213;BME280;6169;44.158;22.788;2023-04-28T03:31:49;101617.78;;;11.12;39.72
12213;BME280;6169;44.158;22.788;2023-04-28T03:36:51;101624.09;;;11.06;38.88
12213;BME280;6169;44.158;22.788;2023-04-28T03:41:55;101628.63;;;11.19;39.49
12213;BME280;6169;44.158;22.788;2023-04-28T03:46:57;101631.72;;;10.91;40.77
12213;BME280;6169;44.158;22.788;2023-04-28T03:51:59;101637.31;;;10.96;39.42
12213;BME280;6169;44.158;22.788;2023-04-28T03:57:03;101641.75;;;11.29;39.25
12213;BME280;6169;44.158;22.788;2023-04-28T04:02:05;101649.75;;;11.24;37.96
12213;BME280;6169;44.158;22.788;2023-04-28T04:07:07;101657.38;;;11.78;39.20
12213;BME280;6169;44.158;22.788;2023-04-28T04:12:11;101657.41;;;11.97;38.84
12213;BME280;6169;44.158;22.788;2023-04-28T04:17:13;101668.22;;;11.53;38.43
12213;BME280;6169;44.158;22.788;2023-04-28T04:22:16;101655.88;;;11.83;40.26
12213;BME280;6169;44.158;22.788;2023-04-28T04:27:19;101654.97;;;11.89;38.66
12213;BME280;6169;44.158;22.788;2023-04-28T04:32:21;101655.91;;;12.26;36.20
12213;BME280;6169;44.158;22.788;2023-04-28T04:37:24;101657.50;;;12.34;38.97
12213;BME280;6169;44.158;22.788;2023-04-28T04:42:28;101663.41;;;12.67;38.32
12213;BME280;6169;44.158;22.788;2023-04-28T04:47:30;101670.25;;;13.13;36.52
12213;BME280;6169;44.158;22.788;2023-04-28T04:52:32;101673.13;;;12.82;33.55
12213;BME280;6169;44.158;22.788;2023-04-28T04:57:36;101675.69;;;12.58;35.60
12213;BME280;6169;44.158;22.788;2023-04-28T05:02:38;101671.31;;;12.57;35.40
12213;BME280;6169;44.158;22.788;2023-04-28T05:07:40;101673.78;;;11.97;31.61
12213;BME280;6169;44.158;22.788;2023-04-28T05:12:44;101684.34;;;12.55;33.04
12213;BME280;6169;44.158;22.788;2023-04-28T05:17:46;101688.13;;;11.86;34.85
12213;BME280;6169;44.158;22.788;2023-04-28T05:22:48;101687.72;;;12.32;32.15
12213;BME280;6169;44.158;22.788;2023-04-28T05:27:52;101685.13;;;12.19;32.17
12213;BME280;6169;44.158;22.788;2023-04-28T05:32:54;101684.41;;;11.73;31.91
12213;BME280;6169;44.158;22.788;2023-04-28T05:37:57;101687.69;;;12.57;32.01
12213;BME280;6169;44.158;22.788;2023-04-28T05:43:00;101687.22;;;12.60;32.72
12213;BME280;6169;44.158;22.788;2023-04-28T05:48:03;101695.28;;;13.10;32.02
12213;BME280;6169;44.158;22.788;2023-04-28T05:53:06;101690.97;;;13.03;32.11
12213;BME280;6169;44.158;22.788;2023-04-28T05:58:10;101689.81;;;12.92;31.10
12213;BME280;6169;44.158;22.788;2023-04-28T06:03:12;101686.44;;;12.35;33.17
12213;BME280;6169;44.158;22.788;2023-04-28T06:08:18;101695.34;;;12.23;32.05
12213;BME280;6169;44.158;22.788;2023-04-28T06:13:22;101690.56;;;12.19;32.91
12213;BME280;6169;44.158;22.788;2023-04-28T06:18:24;101699.97;;;12.66;32.39
12213;BME280;6169;44.158;22.788;2023-04-28T06:23:26;101689.81;;;12.92;33.16
12213;BME280;6169;44.158;22.788;2023-04-28T06:28:30;101702.97;;;14.16;32.19
12213;BME280;6169;44.158;22.788;2023-04-28T06:33:32;101697.84;;;14.08;32.70
12213;BME280;6169;44.158;22.788;2023-04-28T06:38:34;101693.53;;;13.88;29.97
12213;BME280;6169;44.158;22.788;2023-04-28T06:43:38;101701.75;;;14.12;29.12
12213;BME280;6169;44.158;22.788;2023-04-28T06:48:40;101700.09;;;13.87;30.06
12213;BME280;6169;44.158;22.788;2023-04-28T06:53:42;101693.16;;;14.90;28.63
12213;BME280;6169;44.158;22.788;2023-04-28T06:58:46;101696.25;;;15.34;29.08
12213;BME280;6169;44.158;22.788;2023-04-28T07:03:48;101694.34;;;15.35;29.29
12213;BME280;6169;44.158;22.788;2023-04-28T07:08:51;101692.03;;;15.55;28.83
12213;BME280;6169;44.158;22.788;2023-04-28T07:13:54;101691.13;;;15.67;27.09
12213;BME280;6169;44.158;22.788;2023-04-28T07:18:56;101707.53;;;15.95;28.15
12213;BME280;6169;44.158;22.788;2023-04-28T07:23:58;101700.34;;;16.11;28.81
12213;BME280;6169;44.158;22.788;2023-04-28T07:29:02;101699.94;;;16.02;26.93
12213;BME280;6169;44.158;22.788;2023-04-28T07:34:04;101699.69;;;15.70;27.25
12213;BME280;6169;44.158;22.788;2023-04-28T07:39:07;101696.44;;;16.58;26.82
12213;BME280;6169;44.158;22.788;2023-04-28T07:44:10;101690.03;;;16.52;26.94
12213;BME280;6169;44.158;22.788;2023-04-28T07:49:13;101690.88;;;16.75;26.15
12213;BME280;6169;44.158;22.788;2023-04-28T07:54:15;101701.94;;;17.24;25.61
12213;BME280;6169;44.158;22.788;2023-04-28T07:59:18;101696.13;;;16.54;25.05
12213;BME280;6169;44.158;22.788;2023-04-28T08:04:21;101680.41;;;16.71;25.46
12213;BME280;6169;44.158;22.788;2023-04-28T08:09:23;101677.53;;;16.83;25.30
12213;BME280;6169;44.158;22.788;2023-04-28T08:14:26;101676.13;;;17.03;25.78
12213;BME280;6169;44.158;22.788;2023-04-28T08:19:29;101663.59;;;16.90;24.32
12213;BME280;6169;44.158;22.788;2023-04-28T08:24:31;101676.13;;;17.52;23.32
12213;BME280;6169;44.158;22.788;2023-04-28T08:29:36;101671.53;;;17.90;23.74
12213;BME280;6169;44.158;22.788;2023-04-28T08:34:38;101672.13;;;17.65;22.50
12213;BME280;6169;44.158;22.788;2023-04-28T08:39:41;101674.06;;;18.34;21.95
12213;BME280;6169;44.158;22.788;2023-04-28T08:44:45;101671.19;;;17.86;21.81
12213;BME280;6169;44.158;22.788;2023-04-28T08:49:48;101658.91;;;17.34;21.65
12213;BME280;6169;44.158;22.788;2023-04-28T08:54:51;101665.59;;;16.94;22.06
12213;BME280;6169;44.158;22.788;2023-04-28T08:59:55;101660.91;;;18.41;22.17
12213;BME280;6169;44.158;22.788;2023-04-28T09:04:59;101654.78;;;18.81;20.34
12213;BME280;6169;44.158;22.788;2023-04-28T09:10:18;101657.13;;;18.10;21.81
12213;BME280;6169;44.158;22.788;2023-04-28T09:15:29;101652.69;;;18.09;21.26
12213;BME280;6169;44.158;22.788;2023-04-28T09:20:33;101663.22;;;18.17;21.43
12213;BME280;6169;44.158;22.788;2023-04-28T09:25:35;101647.81;;;17.51;20.92
12213;BME280;6169;44.158;22.788;2023-04-28T09:30:39;101642.44;;;17.34;21.75
12213;BME280;6169;44.158;22.788;2023-04-28T09:35:42;101634.53;;;17.43;21.50
12213;BME280;6169;44.158;22.788;2023-04-28T09:41:00;101630.31;;;18.42;21.43
12213;BME280;6169;44.158;22.788;2023-04-28T09:46:04;101630.19;;;18.12;20.17
12213;BME280;6169;44.158;22.788;2023-04-28T09:51:07;101626.72;;;16.81;21.71
12213;BME280;6169;44.158;22.788;2023-04-28T09:56:09;101624.16;;;18.15;20.24
12213;BME280;6169;44.158;22.788;2023-04-28T10:01:13;101607.06;;;17.43;21.05
12213;BME280;6169;44.158;22.788;2023-04-28T10:06:16;101605.81;;;17.56;21.35
12213;BME280;6169;44.158;22.788;2023-04-28T10:11:18;101579.38;;;19.28;20.39
12213;BME280;6169;44.158;22.788;2023-04-28T10:16:23;101577.41;;;18.88;21.04
12213;BME280;6169;44.158;22.788;2023-04-28T10:21:31;101567.19;;;20.11;20.72
12213;BME280;6169;44.158;22.788;2023-04-28T10:27:07;101558.25;;;18.45;20.80
12213;BME280;6169;44.158;22.788;2023-04-28T10:32:22;101543.84;;;19.57;20.63
12213;BME280;6169;44.158;22.788;2023-04-28T10:38:01;101534.09;;;20.06;20.39
12213;BME280;6169;44.158;22.788;2023-04-28T10:43:05;101526.03;;;20.20;20.60
12213;BME280;6169;44.158;22.788;2023-04-28T10:48:09;101513.31;;;20.34;20.38
12213;BME280;6169;44.158;22.788;2023-04-28T10:53:11;101512.63;;;19.77;20.09
12213;BME280;6169;44.158;22.788;2023-04-28T10:58:31;101437.38;;;18.64;20.47
12213;BME280;6169;44.158;22.788;2023-04-28T11:03:47;101487.31;;;19.55;20.90
12213;BME280;6169;44.158;22.788;2023-04-28T11:08:50;101485.94;;;19.42;21.05
12213;BME280;6169;44.158;22.788;2023-04-28T11:14:30;101483.53;;;20.26;20.66
12213;BME280;6169;44.158;22.788;2023-04-28T11:19:36;101487.28;;;19.65;21.20
12213;BME280;6169;44.158;22.788;2023-04-28T11:24:38;101485.09;;;19.26;20.85
12213;BME280;6169;44.158;22.788;2023-04-28T11:29:40;101481.50;;;19.67;20.16
12213;BME280;6169;44.158;22.788;2023-04-28T11:34:50;101330.34;;;19.64;20.12
12213;BME280;6169;44.158;22.788;2023-04-28T11:39:52;101478.44;;;19.68;21.02
12213;BME280;6169;44.158;22.788;2023-04-28T11:44:55;101480.16;;;19.38;20.63
12213;BME280;6169;44.158;22.788;2023-04-28T11:49:58;101469.94;;;19.54;20.19
12213;BME280;6169;44.158;22.788;2023-04-28T11:55:01;101466.91;;;19.46;20.11
12213;BME280;6169;44.158;22.788;2023-04-28T12:00:13;101460.25;;;19.67;20.58
12213;BME280;6169;44.158;22.788;2023-04-28T12:05:20;101459.19;;;19.32;20.59
12213;BME280;6169;44.158;22.788;2023-04-28T12:10:22;101460.19;;;19.82;20.40
12213;BME280;6169;44.158;22.788;2023-04-28T12:15:38;101459.56;;;21.29;19.83
12213;BME280;6169;44.158;22.788;2023-04-28T12:20:43;101298.75;;;20.35;19.51
12213;BME280;6169;44.158;22.788;2023-04-28T12:25:45;101429.38;;;20.69;20.30
12213;BME280;6169;44.158;22.788;2023-04-28T12:30:48;101427.88;;;20.48;19.54
12213;BME280;6169;44.158;22.788;2023-04-28T12:35:52;101423.75;;;21.43;19.50
12213;BME280;6169;44.158;22.788;2023-04-28T12:40:54;101416.22;;;21.25;20.34
12213;BME280;6169;44.158;22.788;2023-04-28T12:45:57;101415.31;;;20.26;19.93
12213;BME280;6169;44.158;22.788;2023-04-28T12:51:01;101407.41;;;20.93;19.83
12213;BME280;6169;44.158;22.788;2023-04-28T12:56:04;101400.25;;;20.87;19.53
12213;BME280;6169;44.158;22.788;2023-04-28T13:01:06;101386.50;;;20.77;19.78
12213;BME280;6169;44.158;22.788;2023-04-28T13:06:10;101371.22;;;21.19;19.94
12213;BME280;6169;44.158;22.788;2023-04-28T13:11:12;101361.06;;;22.24;19.37
12213;BME280;6169;44.158;22.788;2023-04-28T13:16:14;101348.50;;;21.70;18.93
12213;BME280;6169;44.158;22.788;2023-04-28T13:21:18;101335.31;;;21.14;19.05
12213;BME280;6169;44.158;22.788;2023-04-28T13:26:20;101332.38;;;22.34;18.13
12213;BME280;6169;44.158;22.788;2023-04-28T13:31:24;101321.75;;;21.85;18.31
12213;BME280;6169;44.158;22.788;2023-04-28T13:36:27;101312.75;;;22.82;18.73
12213;BME280;6169;44.158;22.788;2023-04-28T13:41:30;101306.28;;;22.87;17.96
12213;BME280;6169;44.158;22.788;2023-04-28T13:46:32;101301.06;;;22.66;17.60
12213;BME280;6169;44.158;22.788;2023-04-28T13:51:36;101297.66;;;22.88;18.49
12213;BME280;6169;44.158;22.788;2023-04-28T13:56:38;101289.50;;;21.94;18.26
12213;BME280;6169;44.158;22.788;2023-04-28T14:01:41;101277.31;;;21.76;18.45
12213;BME280;6169;44.158;22.788;2023-04-28T14:06:44;101281.22;;;22.45;18.78
12213;BME280;6169;44.158;22.788;2023-04-28T14:11:46;101273.94;;;22.82;18.57
12213;BME280;6169;44.158;22.788;2023-04-28T14:16:49;101265.50;;;23.15;17.89
12213;BME280;6169;44.158;22.788;2023-04-28T14:21:52;101258.72;;;23.49;18.01
12213;BME280;6169;44.158;22.788;2023-04-28T14:26:54;101267.75;;;24.58;17.21
12213;BME280;6169;44.158;22.788;2023-04-28T14:31:57;101257.72;;;23.45;17.10
12213;BME280;6169;44.158;22.788;2023-04-28T14:37:00;101255.38;;;23.74;17.42
12213;BME280;6169;44.158;22.788;2023-04-28T14:42:03;101244.16;;;24.47;17.04
12213;BME280;6169;44.158;22.788;2023-04-28T14:47:05;101232.59;;;25.33;17.03
12213;BME280;6169;44.158;22.788;2023-04-28T14:52:09;101233.97;;;24.65;17.19
12213;BME280;6169;44.158;22.788;2023-04-28T14:57:11;101244.13;;;23.57;17.03
12213;BME280;6169;44.158;22.788;2023-04-28T15:02:14;101231.84;;;24.39;17.84
12213;BME280;6169;44.158;22.788;2023-04-28T15:07:18;101220.38;;;25.03;17.46
12213;BME280;6169;44.158;22.788;2023-04-28T15:12:20;101226.69;;;25.26;17.52
12213;BME280;6169;44.158;22.788;2023-04-28T15:17:22;101225.75;;;24.91;17.06
12213;BME280;6169;44.158;22.788;2023-04-28T15:22:26;101221.38;;;24.67;17.87
12213;BME280;6169;44.158;22.788;2023-04-28T15:27:28;101225.44;;;24.61;17.00
12213;BME280;6169;44.158;22.788;2023-04-28T15:32:30;101218.16;;;25.23;16.39
12213;BME280;6169;44.158;22.788;2023-04-28T15:37:41;101211.34;;;24.89;16.54
12213;BME280;6169;44.158;22.788;2023-04-28T15:42:45;101190.00;;;24.67;17.28
12213;BME280;6169;44.158;22.788;2023-04-28T15:47:51;101202.50;;;24.87;17.21
12213;BME280;6169;44.158;22.788;2023-04-28T15:52:55;101187.75;;;23.20;17.90
12213;BME280;6169;44.158;22.788;2023-04-28T15:57:58;101153.91;;;22.68;17.97
12213;BME280;6169;44.158;22.788;2023-04-28T16:03:00;101142.06;;;23.04;18.39
12213;BME280;6169;44.158;22.788;2023-04-28T16:08:04;101180.19;;;22.98;18.64
12213;BME280;6169;44.158;22.788;2023-04-28T16:13:06;101188.38;;;23.17;18.01
12213;BME280;6169;44.158;22.788;2023-04-28T16:18:10;101167.03;;;22.62;18.32
12213;BME280;6169;44.158;22.788;2023-04-28T16:23:14;101175.38;;;23.99;18.40
12213;BME280;6169;44.158;22.788;2023-04-28T16:28:16;101174.81;;;23.66;17.78
12213;BME280;6169;44.158;22.788;2023-04-28T16:33:18;101169.38;;;23.83;17.66
12213;BME280;6169;44.158;22.788;2023-04-28T16:38:22;101174.47;;;24.03;18.44
12213;BME280;6169;44.158;22.788;2023-04-28T16:43:24;101176.94;;;23.46;17.88
12213;BME280;6169;44.158;22.788;2023-04-28T16:48:26;101175.06;;;22.91;18.66
12213;BME280;6169;44.158;22.788;2023-04-28T16:53:30;101167.81;;;23.18;19.18
12213;BME280;6169;44.158;22.788;2023-04-28T16:58:32;101170.50;;;22.08;21.45
12213;BME280;6169;44.158;22.788;2023-04-28T17:03:34;101178.25;;;21.92;22.86
12213;BME280;6169;44.158;22.788;2023-04-28T17:08:42;101173.31;;;21.89;24.20
12213;BME280;6169;44.158;22.788;2023-04-28T17:13:44;101176.78;;;21.05;25.75
12213;BME280;6169;44.158;22.788;2023-04-28T17:18:46;101180.69;;;20.99;26.33
12213;BME280;6169;44.158;22.788;2023-04-28T17:23:50;101169.94;;;20.49;27.41
12213;BME280;6169;44.158;22.788;2023-04-28T17:28:52;101172.84;;;20.34;28.13
12213;BME280;6169;44.158;22.788;2023-04-28T17:33:56;101149.81;;;19.85;28.38
12213;BME280;6169;44.158;22.788;2023-04-28T17:39:00;101182.13;;;19.35;29.42
12213;BME280;6169;44.158;22.788;2023-04-28T17:44:03;101184.38;;;19.28;30.34
12213;BME280;6169;44.158;22.788;2023-04-28T17:49:05;101184.28;;;18.83;31.16
12213;BME280;6169;44.158;22.788;2023-04-28T17:54:09;101186.56;;;18.71;30.67
12213;BME280;6169;44.158;22.788;2023-04-28T17:59:32;101186.88;;;18.13;31.82
12213;BME280;6169;44.158;22.788;2023-04-28T18:04:34;101200.34;;;18.25;31.26
12213;BME280;6169;44.158;22.788;2023-04-28T18:09:38;101197.91;;;18.13;31.26
12213;BME280;6169;44.158;22.788;2023-04-28T18:14:40;101192.91;;;17.79;31.98
12213;BME280;6169;44.158;22.788;2023-04-28T18:19:43;101192.94;;;18.10;30.40
12213;BME280;6169;44.158;22.788;2023-04-28T18:24:47;101201.38;;;17.42;31.72
12213;BME280;6169;44.158;22.788;2023-04-28T18:29:50;101210.38;;;17.22;32.12
12213;BME280;6169;44.158;22.788;2023-04-28T18:34:52;101186.66;;;17.06;31.95
12213;BME280;6169;44.158;22.788;2023-04-28T18:39:56;101210.97;;;16.77;32.25
12213;BME280;6169;44.158;22.788;2023-04-28T18:44:58;101209.25;;;16.65;32.14
12213;BME280;6169;44.158;22.788;2023-04-28T18:50:01;101213.06;;;16.27;32.91
12213;BME280;6169;44.158;22.788;2023-04-28T18:55:06;101212.50;;;16.25;32.26
12213;BME280;6169;44.158;22.788;2023-04-28T19:00:10;101224.41;;;16.03;31.78
12213;BME280;6169;44.158;22.788;2023-04-28T19:05:13;101231.53;;;15.72;32.18
12213;BME280;6169;44.158;22.788;2023-04-28T19:10:17;101227.78;;;15.84;31.88
12213;BME280;6169;44.158;22.788;2023-04-28T19:15:19;101235.16;;;15.78;32.24
12213;BME280;6169;44.158;22.788;2023-04-28T19:20:22;101224.41;;;16.03;32.36
12213;BME280;6169;44.158;22.788;2023-04-28T19:25:26;101218.78;;;16.20;32.16
12213;BME280;6169;44.158;22.788;2023-04-28T19:30:33;101223.19;;;15.89;32.79
12213;BME280;6169;44.158;22.788;2023-04-28T19:35:35;101222.00;;;15.53;33.43
12213;BME280;6169;44.158;22.788;2023-04-28T19:40:39;101216.66;;;15.19;32.46
12213;BME280;6169;44.158;22.788;2023-04-28T19:45:42;101198.56;;;15.67;34.11
12213;BME280;6169;44.158;22.788;2023-04-28T19:50:44;101222.56;;;15.82;33.77
12213;BME280;6169;44.158;22.788;2023-04-28T19:55:48;101212.91;;;16.07;32.86
12213;BME280;6169;44.158;22.788;2023-04-28T20:00:51;101221.63;;;15.71;32.59
12213;BME280;6169;44.158;22.788;2023-04-28T20:05:53;101218.84;;;15.66;32.97
12213;BME280;6169;44.158;22.788;2023-04-28T20:10:56;101221.94;;;15.26;33.04
12213;BME280;6169;44.158;22.788;2023-04-28T20:15:59;101216.09;;;14.78;33.24
12213;BME280;6169;44.158;22.788;2023-04-28T20:21:01;101210.81;;;14.55;33.38
12213;BME280;6169;44.158;22.788;2023-04-28T20:26:05;101202.19;;;14.80;33.40
12213;BME280;6169;44.158;22.788;2023-04-28T20:31:13;101199.38;;;14.58;33.72
12213;BME280;6169;44.158;22.788;2023-04-28T20:36:15;101199.81;;;14.66;33.91
12213;BME280;6169;44.158;22.788;2023-04-28T20:41:19;101202.75;;;14.65;33.89
12213;BME280;6169;44.158;22.788;2023-04-28T20:46:21;101209.31;;;14.64;34.33
12213;BME280;6169;44.158;22.788;2023-04-28T20:51:23;101202.28;;;14.68;34.83
12213;BME280;6169;44.158;22.788;2023-04-28T20:56:27;101193.69;;;14.81;34.44
12213;BME280;6169;44.158;22.788;2023-04-28T21:01:29;101201.34;;;14.79;35.91
12213;BME280;6169;44.158;22.788;2023-04-28T21:06:31;101196.72;;;14.80;35.19
12213;BME280;6169;44.158;22.788;2023-04-28T21:11:34;101183.13;;;14.68;34.62
12213;BME280;6169;44.158;22.788;2023-04-28T21:16:36;101180.97;;;14.92;36.02
12213;BME280;6169;44.158;22.788;2023-04-28T21:21:38;101180.84;;;14.82;35.80
12213;BME280;6169;44.158;22.788;2023-04-28T21:26:42;101177.94;;;14.88;35.66
12213;BME280;6169;44.158;22.788;2023-04-28T21:31:44;101173.13;;;14.40;35.61
12213;BME280;6169;44.158;22.788;2023-04-28T21:36:47;101176.88;;;14.17;35.65
12213;BME280;6169;44.158;22.788;2023-04-28T21:41:50;101175.13;;;13.94;35.07
12213;BME280;6169;44.158;22.788;2023-04-28T21:46:52;101177.03;;;14.44;34.66
12213;BME280;6169;44.158;22.788;2023-04-28T21:51:54;101176.84;;;14.34;37.65
12213;BME280;6169;44.158;22.788;2023-04-28T21:56:58;101179.56;;;14.51;37.58
12213;BME280;6169;44.158;22.788;2023-04-28T22:02:00;101055.81;;;13.83;36.62
12213;BME280;6169;44.158;22.788;2023-04-28T22:07:03;101172.41;;;14.27;37.83
12213;BME280;6169;44.158;22.788;2023-04-28T22:12:07;101172.59;;;14.04;37.19
12213;BME280;6169;44.158;22.788;2023-04-28T22:17:09;101171.00;;;13.91;36.79
12213;BME280;6169;44.158;22.788;2023-04-28T22:22:11;101182.88;;;13.68;37.12
12213;BME280;6169;44.158;22.788;2023-04-28T22:27:15;101186.06;;;13.48;38.08
12213;BME280;6169;44.158;22.788;2023-04-28T22:32:17;101193.59;;;13.29;38.84
12213;BME280;6169;44.158;22.788;2023-04-28T22:37:19;101195.94;;;13.37;38.06
12213;BME280;6169;44.158;22.788;2023-04-28T22:42:23;101193.44;;;13.07;38.58
12213;BME280;6169;44.158;22.788;2023-04-28T22:47:25;101190.50;;;12.97;38.78
12213;BME280;6169;44.158;22.788;2023-04-28T22:52:27;101174.16;;;13.26;39.45
12213;BME280;6169;44.158;22.788;2023-04-28T22:57:31;101168.31;;;13.34;38.89
12213;BME280;6169;44.158;22.788;2023-04-28T23:02:33;101155.63;;;12.76;37.92
12213;BME280;6169;44.158;22.788;2023-04-28T23:07:35;101145.84;;;12.39;38.73
12213;BME280;6169;44.158;22.788;2023-04-28T23:12:39;101144.56;;;12.30;38.96
12213;BME280;6169;44.158;22.788;2023-04-28T23:17:42;101139.47;;;12.10;39.08
12213;BME280;6169;44.158;22.788;2023-04-28T23:22:44;101149.63;;;12.50;39.44
12213;BME280;6169;44.158;22.788;2023-04-28T23:27:48;101151.50;;;12.73;38.25
12213;BME280;6169;44.158;22.788;2023-04-28T23:32:50;101145.03;;;12.15;38.36
12213;BME280;6169;44.158;22.788;2023-04-28T23:37:52;101144.34;;;12.32;39.26
12213;BME280;6169;44.158;22.788;2023-04-28T23:42:56;101150.56;;;12.91;38.40
12213;BME280;6169;44.158;22.788;2023-04-28T23:47:58;101147.34;;;12.70;39.03
12213;BME280;6169;44.158;22.788;2023-04-28T23:53:00;101130.66;;;12.55;38.69
12213;BME280;6169;44.158;22.788;2023-04-28T23:58:05;101131.13;;;12.64;37.23
